<?xml version="1.0" encoding="UTF-8" standalone="no" ?>
<gpx xmlns="http://www.topografix.com/GPX/1/1" xmlns:xsi="http://www.w3.org/2001/XMLSchema-instance" xsi:schemaLocation="http://www.topografix.com/GPX/1/1 http://www.topografix.com/GPX/1/1/gpx.xsd" version="1.1" creator="VisuGPX - https://www.visugpx.com">
  <metadata>
    <name>La Cabane des Mulets</name>
  </metadata>
  <wpt lat="44.319" lon="6.42256">
    <ele>1461</ele>
    <name><![CDATA[Parking véhicules]]></name>
  </wpt>
  <wpt lat="44.31968" lon="6.42762">
    <ele>1511</ele>
    <name><![CDATA[Cabane des Mulets]]></name>
  </wpt>
  <wpt lat="44.32085" lon="6.42983">
    <ele>1542</ele>
    <name><![CDATA[Pont en bois]]></name>
  </wpt>
  <wpt lat="44.32036" lon="6.43521">
    <ele>1708</ele>
    <name><![CDATA[Cabane des Mulets]]></name>
  </wpt>
  <wpt lat="44.31979" lon="6.43585">
    <ele>1709</ele>
    <name><![CDATA[Balise]]></name>
  </wpt>
  <wpt lat="44.31907" lon="6.42258">
    <ele>1461</ele>
    <name><![CDATA[Parkings  véhicules]]></name>
  </wpt>
  <trk>
    <name><![CDATA[La Cabane des Mulets]]></name>
    <trkseg>
      <trkpt lat="44.319" lon="6.42256">
        <ele>1461</ele>
        <time>2022-06-02T11:40:14+02:00</time>
      </trkpt>
      <trkpt lat="44.31894" lon="6.42319">
        <ele>1468</ele>
        <time>2022-06-02T11:40:52+02:00</time>
      </trkpt>
      <trkpt lat="44.31903" lon="6.42352">
        <ele>1471</ele>
        <time>2022-06-02T11:41:26+02:00</time>
      </trkpt>
      <trkpt lat="44.31908" lon="6.42383">
        <ele>1473</ele>
        <time>2022-06-02T11:41:49+02:00</time>
      </trkpt>
      <trkpt lat="44.31917" lon="6.42413">
        <ele>1474</ele>
        <time>2022-06-02T11:42:15+02:00</time>
      </trkpt>
      <trkpt lat="44.31924" lon="6.42443">
        <ele>1475</ele>
        <time>2022-06-02T11:42:39+02:00</time>
      </trkpt>
      <trkpt lat="44.31926" lon="6.42474">
        <ele>1478</ele>
        <time>2022-06-02T11:43:04+02:00</time>
      </trkpt>
      <trkpt lat="44.31924" lon="6.42505">
        <ele>1480</ele>
        <time>2022-06-02T11:43:26+02:00</time>
      </trkpt>
      <trkpt lat="44.31916" lon="6.42536">
        <ele>1483</ele>
        <time>2022-06-02T11:43:47+02:00</time>
      </trkpt>
      <trkpt lat="44.31913" lon="6.42567">
        <ele>1487</ele>
        <time>2022-06-02T11:44:11+02:00</time>
      </trkpt>
      <trkpt lat="44.31915" lon="6.42597">
        <ele>1489</ele>
        <time>2022-06-02T11:44:32+02:00</time>
      </trkpt>
      <trkpt lat="44.31916" lon="6.42636">
        <ele>1494</ele>
        <time>2022-06-02T11:45:47+02:00</time>
      </trkpt>
      <trkpt lat="44.31922" lon="6.42662">
        <ele>1498</ele>
        <time>2022-06-02T11:46:09+02:00</time>
      </trkpt>
      <trkpt lat="44.31927" lon="6.42694">
        <ele>1502</ele>
        <time>2022-06-02T11:46:38+02:00</time>
      </trkpt>
      <trkpt lat="44.31934" lon="6.42724">
        <ele>1507</ele>
        <time>2022-06-02T11:47:04+02:00</time>
      </trkpt>
      <trkpt lat="44.31947" lon="6.42751">
        <ele>1509</ele>
        <time>2022-06-02T11:47:34+02:00</time>
      </trkpt>
      <trkpt lat="44.31968" lon="6.42762">
        <ele>1511</ele>
        <time>2022-06-02T12:04:47+02:00</time>
      </trkpt>
      <trkpt lat="44.3199" lon="6.42773">
        <ele>1518</ele>
        <time>2022-06-02T12:09:36+02:00</time>
      </trkpt>
      <trkpt lat="44.3201" lon="6.42788">
        <ele>1525</ele>
        <time>2022-06-02T12:10:06+02:00</time>
      </trkpt>
      <trkpt lat="44.32025" lon="6.42812">
        <ele>1525</ele>
        <time>2022-06-02T12:10:35+02:00</time>
      </trkpt>
      <trkpt lat="44.3204" lon="6.42835">
        <ele>1528</ele>
        <time>2022-06-02T12:11:15+02:00</time>
      </trkpt>
      <trkpt lat="44.32052" lon="6.42864">
        <ele>1528</ele>
        <time>2022-06-02T12:11:52+02:00</time>
      </trkpt>
      <trkpt lat="44.32066" lon="6.42889">
        <ele>1534</ele>
        <time>2022-06-02T12:12:33+02:00</time>
      </trkpt>
      <trkpt lat="44.32075" lon="6.4292">
        <ele>1534</ele>
        <time>2022-06-02T12:15:17+02:00</time>
      </trkpt>
      <trkpt lat="44.32082" lon="6.42951">
        <ele>1535</ele>
        <time>2022-06-02T12:15:47+02:00</time>
      </trkpt>
      <trkpt lat="44.32085" lon="6.42983">
        <ele>1542</ele>
        <time>2022-06-02T12:16:23+02:00</time>
      </trkpt>
      <trkpt lat="44.32098" lon="6.43009">
        <ele>1553</ele>
        <time>2022-06-02T12:18:55+02:00</time>
      </trkpt>
      <trkpt lat="44.32095" lon="6.4304">
        <ele>1553</ele>
        <time>2022-06-02T12:19:27+02:00</time>
      </trkpt>
      <trkpt lat="44.32107" lon="6.43068">
        <ele>1559</ele>
        <time>2022-06-02T12:20:32+02:00</time>
      </trkpt>
      <trkpt lat="44.32129" lon="6.43058">
        <ele>1563</ele>
        <time>2022-06-02T12:21:29+02:00</time>
      </trkpt>
      <trkpt lat="44.32144" lon="6.43082">
        <ele>1567</ele>
        <time>2022-06-02T12:23:39+02:00</time>
      </trkpt>
      <trkpt lat="44.32148" lon="6.43114">
        <ele>1574</ele>
        <time>2022-06-02T12:24:52+02:00</time>
      </trkpt>
      <trkpt lat="44.32139" lon="6.43145">
        <ele>1587</ele>
        <time>2022-06-02T12:28:17+02:00</time>
      </trkpt>
      <trkpt lat="44.32142" lon="6.43176">
        <ele>1601</ele>
        <time>2022-06-02T12:29:38+02:00</time>
      </trkpt>
      <trkpt lat="44.32147" lon="6.43207">
        <ele>1616</ele>
        <time>2022-06-02T12:30:16+02:00</time>
      </trkpt>
      <trkpt lat="44.32141" lon="6.43238">
        <ele>1623</ele>
        <time>2022-06-02T12:30:55+02:00</time>
      </trkpt>
      <trkpt lat="44.32149" lon="6.43267">
        <ele>1634</ele>
        <time>2022-06-02T12:31:59+02:00</time>
      </trkpt>
      <trkpt lat="44.32143" lon="6.43297">
        <ele>1638</ele>
        <time>2022-06-02T12:32:53+02:00</time>
      </trkpt>
      <trkpt lat="44.32124" lon="6.43316">
        <ele>1640</ele>
        <time>2022-06-02T12:35:02+02:00</time>
      </trkpt>
      <trkpt lat="44.32103" lon="6.43328">
        <ele>1642</ele>
        <time>2022-06-02T12:35:46+02:00</time>
      </trkpt>
      <trkpt lat="44.32111" lon="6.4336">
        <ele>1652</ele>
        <time>2022-06-02T12:36:22+02:00</time>
      </trkpt>
      <trkpt lat="44.32091" lon="6.43374">
        <ele>1657</ele>
        <time>2022-06-02T12:37:02+02:00</time>
      </trkpt>
      <trkpt lat="44.32069" lon="6.43366">
        <ele>1653</ele>
        <time>2022-06-02T12:37:27+02:00</time>
      </trkpt>
      <trkpt lat="44.3207" lon="6.43398">
        <ele>1667</ele>
        <time>2022-06-02T12:38:33+02:00</time>
      </trkpt>
      <trkpt lat="44.32047" lon="6.43395">
        <ele>1668</ele>
        <time>2022-06-02T12:41:04+02:00</time>
      </trkpt>
      <trkpt lat="44.32049" lon="6.43427">
        <ele>1682</ele>
        <time>2022-06-02T12:41:50+02:00</time>
      </trkpt>
      <trkpt lat="44.32029" lon="6.43443">
        <ele>1690</ele>
        <time>2022-06-02T12:42:58+02:00</time>
      </trkpt>
      <trkpt lat="44.32028" lon="6.43474">
        <ele>1699</ele>
        <time>2022-06-02T12:43:49+02:00</time>
      </trkpt>
      <trkpt lat="44.32029" lon="6.43505">
        <ele>1706</ele>
        <time>2022-06-02T12:48:04+02:00</time>
      </trkpt>
      <trkpt lat="44.32036" lon="6.43521">
        <ele>1708</ele>
        <time>2022-06-02T15:18:14+02:00</time>
      </trkpt>
      <trkpt lat="44.32039" lon="6.43549">
        <ele>1710</ele>
        <time>2022-06-02T15:19:54+02:00</time>
      </trkpt>
      <trkpt lat="44.32022" lon="6.43581">
        <ele>1708</ele>
        <time>2022-06-02T15:20:27+02:00</time>
      </trkpt>
      <trkpt lat="44.32001" lon="6.43595">
        <ele>1708</ele>
        <time>2022-06-02T15:20:50+02:00</time>
      </trkpt>
      <trkpt lat="44.31979" lon="6.43585">
        <ele>1709</ele>
        <time>2022-06-02T15:22:27+02:00</time>
      </trkpt>
      <trkpt lat="44.31971" lon="6.43555">
        <ele>1705</ele>
        <time>2022-06-02T15:22:46+02:00</time>
      </trkpt>
      <trkpt lat="44.31964" lon="6.43534">
        <ele>1709</ele>
        <time>2022-06-02T15:24:08+02:00</time>
      </trkpt>
      <trkpt lat="44.31964" lon="6.43509">
        <ele>1706</ele>
        <time>2022-06-02T15:29:42+02:00</time>
      </trkpt>
      <trkpt lat="44.3196" lon="6.43478">
        <ele>1706</ele>
        <time>2022-06-02T15:30:05+02:00</time>
      </trkpt>
      <trkpt lat="44.31963" lon="6.43446">
        <ele>1702</ele>
        <time>2022-06-02T15:30:26+02:00</time>
      </trkpt>
      <trkpt lat="44.31975" lon="6.43419">
        <ele>1694</ele>
        <time>2022-06-02T15:30:49+02:00</time>
      </trkpt>
      <trkpt lat="44.31974" lon="6.43387">
        <ele>1695</ele>
        <time>2022-06-02T15:31:15+02:00</time>
      </trkpt>
      <trkpt lat="44.31963" lon="6.43359">
        <ele>1688</ele>
        <time>2022-06-02T15:31:51+02:00</time>
      </trkpt>
      <trkpt lat="44.31929" lon="6.43359">
        <ele>1682</ele>
        <time>2022-06-02T15:32:13+02:00</time>
      </trkpt>
      <trkpt lat="44.31954" lon="6.43338">
        <ele>1676</ele>
        <time>2022-06-02T15:36:18+02:00</time>
      </trkpt>
      <trkpt lat="44.31974" lon="6.43325">
        <ele>1671</ele>
        <time>2022-06-02T15:36:44+02:00</time>
      </trkpt>
      <trkpt lat="44.32011" lon="6.43324">
        <ele>1660</ele>
        <time>2022-06-02T15:37:19+02:00</time>
      </trkpt>
      <trkpt lat="44.31986" lon="6.43299">
        <ele>1658</ele>
        <time>2022-06-02T15:38:49+02:00</time>
      </trkpt>
      <trkpt lat="44.3199" lon="6.43282">
        <ele>1650</ele>
        <time>2022-06-02T15:40:22+02:00</time>
      </trkpt>
      <trkpt lat="44.32029" lon="6.43279">
        <ele>1647</ele>
        <time>2022-06-02T15:41:23+02:00</time>
      </trkpt>
      <trkpt lat="44.32027" lon="6.43248">
        <ele>1640</ele>
        <time>2022-06-02T15:42:24+02:00</time>
      </trkpt>
      <trkpt lat="44.32042" lon="6.43224">
        <ele>1637</ele>
        <time>2022-06-02T15:43:01+02:00</time>
      </trkpt>
      <trkpt lat="44.32064" lon="6.4323">
        <ele>1635</ele>
        <time>2022-06-02T15:44:24+02:00</time>
      </trkpt>
      <trkpt lat="44.32043" lon="6.43188">
        <ele>1622</ele>
        <time>2022-06-02T15:45:03+02:00</time>
      </trkpt>
      <trkpt lat="44.32081" lon="6.43177">
        <ele>1613</ele>
        <time>2022-06-02T15:48:11+02:00</time>
      </trkpt>
      <trkpt lat="44.32065" lon="6.4316">
        <ele>1609</ele>
        <time>2022-06-02T15:49:03+02:00</time>
      </trkpt>
      <trkpt lat="44.32043" lon="6.43153">
        <ele>1606</ele>
        <time>2022-06-02T15:49:32+02:00</time>
      </trkpt>
      <trkpt lat="44.32023" lon="6.4317">
        <ele>1608</ele>
        <time>2022-06-02T15:49:57+02:00</time>
      </trkpt>
      <trkpt lat="44.32006" lon="6.4319">
        <ele>1610</ele>
        <time>2022-06-02T15:50:22+02:00</time>
      </trkpt>
      <trkpt lat="44.31987" lon="6.43208">
        <ele>1612</ele>
        <time>2022-06-02T15:50:46+02:00</time>
      </trkpt>
      <trkpt lat="44.31968" lon="6.43205">
        <ele>1607</ele>
        <time>2022-06-02T15:51:11+02:00</time>
      </trkpt>
      <trkpt lat="44.31994" lon="6.43153">
        <ele>1597</ele>
        <time>2022-06-02T15:53:31+02:00</time>
      </trkpt>
      <trkpt lat="44.32001" lon="6.43124">
        <ele>1593</ele>
        <time>2022-06-02T15:54:02+02:00</time>
      </trkpt>
      <trkpt lat="44.31996" lon="6.43092">
        <ele>1599</ele>
        <time>2022-06-02T15:54:25+02:00</time>
      </trkpt>
      <trkpt lat="44.31996" lon="6.43059">
        <ele>1603</ele>
        <time>2022-06-02T15:54:47+02:00</time>
      </trkpt>
      <trkpt lat="44.32013" lon="6.43036">
        <ele>1594</ele>
        <time>2022-06-02T15:55:08+02:00</time>
      </trkpt>
      <trkpt lat="44.32031" lon="6.4301">
        <ele>1582</ele>
        <time>2022-06-02T15:55:29+02:00</time>
      </trkpt>
      <trkpt lat="44.32017" lon="6.42981">
        <ele>1586</ele>
        <time>2022-06-02T15:55:54+02:00</time>
      </trkpt>
      <trkpt lat="44.32002" lon="6.42958">
        <ele>1586</ele>
        <time>2022-06-02T15:56:13+02:00</time>
      </trkpt>
      <trkpt lat="44.31985" lon="6.42937">
        <ele>1588</ele>
        <time>2022-06-02T15:56:37+02:00</time>
      </trkpt>
      <trkpt lat="44.31973" lon="6.42911">
        <ele>1583</ele>
        <time>2022-06-02T15:56:57+02:00</time>
      </trkpt>
      <trkpt lat="44.31953" lon="6.42893">
        <ele>1578</ele>
        <time>2022-06-02T15:57:24+02:00</time>
      </trkpt>
      <trkpt lat="44.31916" lon="6.42875">
        <ele>1566</ele>
        <time>2022-06-02T15:57:45+02:00</time>
      </trkpt>
      <trkpt lat="44.31948" lon="6.42862">
        <ele>1561</ele>
        <time>2022-06-02T16:01:37+02:00</time>
      </trkpt>
      <trkpt lat="44.31986" lon="6.42851">
        <ele>1547</ele>
        <time>2022-06-02T16:02:12+02:00</time>
      </trkpt>
      <trkpt lat="44.31947" lon="6.42846">
        <ele>1552</ele>
        <time>2022-06-02T16:03:37+02:00</time>
      </trkpt>
      <trkpt lat="44.31923" lon="6.42844">
        <ele>1549</ele>
        <time>2022-06-02T16:03:59+02:00</time>
      </trkpt>
      <trkpt lat="44.31906" lon="6.42823">
        <ele>1545</ele>
        <time>2022-06-02T16:04:26+02:00</time>
      </trkpt>
      <trkpt lat="44.31891" lon="6.42798">
        <ele>1540</ele>
        <time>2022-06-02T16:04:52+02:00</time>
      </trkpt>
      <trkpt lat="44.31869" lon="6.42788">
        <ele>1547</ele>
        <time>2022-06-02T16:05:18+02:00</time>
      </trkpt>
      <trkpt lat="44.31869" lon="6.42759">
        <ele>1539</ele>
        <time>2022-06-02T16:05:38+02:00</time>
      </trkpt>
      <trkpt lat="44.31867" lon="6.42731">
        <ele>1535</ele>
        <time>2022-06-02T16:05:59+02:00</time>
      </trkpt>
      <trkpt lat="44.3187" lon="6.42698">
        <ele>1527</ele>
        <time>2022-06-02T16:06:29+02:00</time>
      </trkpt>
      <trkpt lat="44.31869" lon="6.42647">
        <ele>1521</ele>
        <time>2022-06-02T16:07:13+02:00</time>
      </trkpt>
      <trkpt lat="44.31881" lon="6.42688">
        <ele>1518</ele>
        <time>2022-06-02T16:11:57+02:00</time>
      </trkpt>
      <trkpt lat="44.31892" lon="6.42716">
        <ele>1517</ele>
        <time>2022-06-02T16:12:20+02:00</time>
      </trkpt>
      <trkpt lat="44.31908" lon="6.42739">
        <ele>1515</ele>
        <time>2022-06-02T16:12:42+02:00</time>
      </trkpt>
      <trkpt lat="44.31926" lon="6.42754">
        <ele>1513</ele>
        <time>2022-06-02T16:13:08+02:00</time>
      </trkpt>
      <trkpt lat="44.31957" lon="6.42766">
        <ele>1512</ele>
        <time>2022-06-02T16:13:35+02:00</time>
      </trkpt>
      <trkpt lat="44.31936" lon="6.42734">
        <ele>1508</ele>
        <time>2022-06-02T16:14:11+02:00</time>
      </trkpt>
      <trkpt lat="44.31925" lon="6.42706">
        <ele>1504</ele>
        <time>2022-06-02T16:14:40+02:00</time>
      </trkpt>
      <trkpt lat="44.31918" lon="6.42674">
        <ele>1499</ele>
        <time>2022-06-02T16:15:04+02:00</time>
      </trkpt>
      <trkpt lat="44.31914" lon="6.42643">
        <ele>1496</ele>
        <time>2022-06-02T16:15:28+02:00</time>
      </trkpt>
      <trkpt lat="44.31913" lon="6.42613">
        <ele>1492</ele>
        <time>2022-06-02T16:15:50+02:00</time>
      </trkpt>
      <trkpt lat="44.31907" lon="6.4258">
        <ele>1492</ele>
        <time>2022-06-02T16:16:14+02:00</time>
      </trkpt>
      <trkpt lat="44.31905" lon="6.42549">
        <ele>1490</ele>
        <time>2022-06-02T16:16:39+02:00</time>
      </trkpt>
      <trkpt lat="44.31914" lon="6.42519">
        <ele>1483</ele>
        <time>2022-06-02T16:17:03+02:00</time>
      </trkpt>
      <trkpt lat="44.31921" lon="6.42489">
        <ele>1479</ele>
        <time>2022-06-02T16:17:35+02:00</time>
      </trkpt>
      <trkpt lat="44.31917" lon="6.42456">
        <ele>1477</ele>
        <time>2022-06-02T16:18:33+02:00</time>
      </trkpt>
      <trkpt lat="44.31916" lon="6.42425">
        <ele>1475</ele>
        <time>2022-06-02T16:18:59+02:00</time>
      </trkpt>
      <trkpt lat="44.31911" lon="6.42394">
        <ele>1474</ele>
        <time>2022-06-02T16:19:21+02:00</time>
      </trkpt>
      <trkpt lat="44.31901" lon="6.42365">
        <ele>1473</ele>
        <time>2022-06-02T16:19:41+02:00</time>
      </trkpt>
      <trkpt lat="44.31898" lon="6.42332">
        <ele>1469</ele>
        <time>2022-06-02T16:20:00+02:00</time>
      </trkpt>
      <trkpt lat="44.319" lon="6.42302">
        <ele>1466</ele>
        <time>2022-06-02T16:20:50+02:00</time>
      </trkpt>
      <trkpt lat="44.31907" lon="6.42258">
        <ele>1461</ele>
        <time>2022-06-02T16:22:35+02:00</time>
      </trkpt>
    </trkseg>
  </trk>
</gpx>